createdAt,value
2023-03-26T00:13:59.881Z,85.44
2023-03-26T00:29:07.160Z,85.48
2023-03-26T00:44:13.224Z,85.61
2023-03-26T00:59:19.330Z,85.45
2023-03-26T01:14:27.095Z,86.56
2023-03-26T01:29:39.594Z,87.64
2023-03-26T01:44:51.861Z,88.36
2023-03-26T02:00:13.259Z,86.97
2023-03-26T02:15:18.836Z,87.03
2023-03-26T02:30:27.116Z,88.17
2023-03-26T02:45:32.712Z,90.31
2023-03-26T03:00:38.404Z,92.03
2023-03-26T03:15:44.403Z,93.83
2023-03-26T03:30:53.375Z,93.19
2023-03-26T03:45:59.265Z,93.80
2023-03-26T04:01:04.820Z,94.27
2023-03-26T04:16:11.137Z,94.65
2023-03-26T04:31:19.446Z,94.88
2023-03-26T04:46:25.643Z,94.79
2023-03-26T05:01:31.708Z,96.46
2023-03-26T05:16:39.840Z,95.89
2023-03-26T05:31:45.990Z,97.99
2023-03-26T05:46:51.796Z,97.54
2023-03-26T06:01:57.652Z,98.60
2023-03-26T06:17:03.433Z,98.39
2023-03-26T06:32:19.065Z,98.50
2023-03-26T06:47:26.640Z,98.28
2023-03-26T07:02:33.159Z,97.62
2023-03-26T07:17:38.976Z,97.41
2023-03-26T07:32:52.493Z,97.65
2023-03-26T07:47:59.178Z,92.37
2023-03-26T08:03:37.699Z,89.76
2023-03-26T08:18:51.467Z,98.80
2023-03-26T08:33:57.225Z,94.59
2023-03-26T08:49:32.785Z,91.37
2023-03-26T09:05:13.271Z,85.90
2023-03-26T09:20:54.423Z,79.48
2023-03-26T09:36:22.056Z,73.34
2023-03-26T09:51:44.984Z,70.85
2023-03-26T10:06:58.381Z,68.20
2023-03-26T10:22:20.434Z,70.63
2023-03-26T10:37:38.348Z,67.37
2023-03-26T10:52:49.718Z,65.30
2023-03-26T11:08:01.861Z,69.13
2023-03-26T11:23:21.762Z,64.33
2023-03-26T11:38:38.014Z,57.93
2023-03-26T11:53:46.947Z,58.26
2023-03-26T12:08:52.733Z,59.90
2023-03-26T12:24:01.421Z,69.20
2023-03-26T12:40:10.631Z,64.41
2023-03-26T12:55:12.131Z,70.55
2023-03-26T13:10:49.839Z,71.35
2023-03-26T13:26:05.016Z,71.58
2023-03-26T13:41:17.908Z,85.87
2023-03-26T13:56:29.965Z,92.92
2023-03-26T14:11:45.374Z,91.82
2023-03-26T14:27:15.950Z,91.46
2023-03-26T14:42:29.272Z,89.31
2023-03-26T14:58:08.737Z,95.36
2023-03-26T15:13:43.478Z,94.37
2023-03-26T15:29:19.363Z,94.38
2023-03-26T15:44:50.952Z,93.77
2023-03-26T16:00:25.063Z,93.57
2023-03-26T16:15:33.521Z,91.47
2023-03-26T16:30:42.389Z,90.23
2023-03-26T16:45:54.745Z,87.80
2023-03-26T17:01:10.143Z,89.11
2023-03-26T17:16:21.701Z,91.48
2023-03-26T17:31:41.530Z,91.56
2023-03-26T17:46:48.538Z,90.48
2023-03-26T18:02:01.230Z,90.56
2023-03-26T18:17:07.809Z,92.29
2023-03-26T18:32:23.075Z,92.56
2023-03-26T18:47:30.761Z,92.37
2023-03-26T19:02:36.929Z,95.74
2023-03-26T19:17:45.787Z,95.83
2023-03-26T19:33:13.573Z,96.28
2023-03-26T19:48:46.012Z,95.94
2023-03-26T20:03:50.696Z,97.07
2023-03-26T20:19:02.631Z,96.91
2023-03-26T20:34:16.817Z,97.26
2023-03-26T20:49:23.273Z,96.79
2023-03-26T21:04:29.496Z,95.69
2023-03-26T21:19:36.393Z,95.87
2023-03-26T21:34:55.635Z,96.84
2023-03-26T21:50:04.599Z,96.18
2023-03-26T22:05:16.184Z,95.88
2023-03-26T22:20:25.400Z,96.81
2023-03-26T22:35:31.734Z,97.58
2023-03-26T22:50:37.439Z,97.59
2023-03-26T23:05:43.161Z,96.42
2023-03-26T23:20:56.697Z,96.94
2023-03-26T23:36:07.292Z,97.97
2023-03-26T23:51:13.222Z,99.18
